sensor_id;sensor_type;location;lat;lon;timestamp;pressure;altitude;pressure_sealevel;temperature;humidity
9460;BME280;4768;42.664;23.240;2023-04-28T00:02:00;168056.72;;;4.30;100.00
9460;BME280;4768;42.664;23.240;2023-04-28T00:04:27;168055.41;;;4.29;100.00
9460;BME280;4768;42.664;23.240;2023-04-28T00:06:54;168046.09;;;4.26;100.00
9460;BME280;4768;42.664;23.240;2023-04-28T00:09:21;168038.13;;;4.23;100.00
9460;BME280;4768;42.664;23.240;2023-04-28T00:11:48;168027.56;;;4.19;100.00
9460;BME280;4768;42.664;23.240;2023-04-28T00:14:15;168008.97;;;4.12;100.00
9460;BME280;4768;42.664;23.240;2023-04-28T00:16:43;167994.34;;;4.06;100.00
9460;BME280;4768;42.664;23.240;2023-04-28T00:19:10;167975.81;;;3.99;100.00
9460;BME280;4768;42.664;23.240;2023-04-28T00:21:36;162296.72;;;4.01;100.00
9460;BME280;4768;42.664;23.240;2023-04-28T00:24:04;152001.97;;;3.96;100.00
9460;BME280;4768;42.664;23.240;2023-04-28T00:26:31;144919.13;;;3.92;100.00
9460;BME280;4768;42.664;23.240;2023-04-28T00:28:58;139258.56;;;3.86;100.00
9460;BME280;4768;42.664;23.240;2023-04-28T00:31:25;137140.69;;;3.85;100.00
9460;BME280;4768;42.664;23.240;2023-04-28T00:33:53;125865.66;;;3.79;100.00
9460;BME280;4768;42.664;23.240;2023-04-28T00:36:19;119535.00;;;3.73;100.00
9460;BME280;4768;42.664;23.240;2023-04-28T00:38:46;103084.38;;;3.68;100.00
9460;BME280;4768;42.664;23.240;2023-04-28T00:41:13;97488.41;;;3.57;100.00
9460;BME280;4768;42.664;23.240;2023-04-28T00:43:44;93661.00;;;3.59;100.00
9460;BME280;4768;42.664;23.240;2023-04-28T00:46:17;86705.00;;;3.57;100.00
9460;BME280;4768;42.664;23.240;2023-04-28T00:48:45;90194.69;;;3.68;100.00
9460;BME280;4768;42.664;23.240;2023-04-28T00:51:14;93322.13;;;3.66;100.00
9460;BME280;4768;42.664;23.240;2023-04-28T00:53:41;90187.94;;;3.63;100.00
9460;BME280;4768;42.664;23.240;2023-04-28T00:56:08;88793.47;;;3.60;100.00
9460;BME280;4768;42.664;23.240;2023-04-28T00:58:36;93313.72;;;3.60;100.00
9460;BME280;4768;42.664;23.240;2023-04-28T01:01:03;91225.72;;;3.59;100.00
9460;BME280;4768;42.664;23.240;2023-04-28T01:03:30;95745.44;;;3.56;100.00
9460;BME280;4768;42.664;23.240;2023-04-28T01:05:58;103067.94;;;3.58;100.00
9460;BME280;4768;42.664;23.240;2023-04-28T01:08:29;102702.66;;;3.47;100.00
9460;BME280;4768;42.664;23.240;2023-04-28T01:10:57;98865.84;;;3.46;100.00
9460;BME280;4768;42.664;23.240;2023-04-28T01:13:23;94333.72;;;3.43;100.00
9460;BME280;4768;42.664;23.240;2023-04-28T01:15:51;94329.47;;;3.40;100.00
9460;BME280;4768;42.664;23.240;2023-04-28T01:18:17;97458.25;;;3.37;100.00
9460;BME280;4768;42.664;23.240;2023-04-28T01:20:44;99550.78;;;3.38;100.00
9460;BME280;4768;42.664;23.240;2023-04-28T01:23:11;103382.44;;;3.36;100.00
9460;BME280;4768;42.664;23.240;2023-04-28T01:25:40;107223.63;;;3.37;100.00
9460;BME280;4768;42.664;23.240;2023-04-28T01:28:07;106182.50;;;3.41;100.00
9460;BME280;4768;42.664;23.240;2023-04-28T01:30:34;111069.22;;;3.38;100.00
9460;BME280;4768;42.664;23.240;2023-04-28T01:33:01;105472.22;;;3.34;100.00
9460;BME280;4768;42.664;23.240;2023-04-28T01:35:28;111061.59;;;3.34;100.00
9460;BME280;4768;42.664;23.240;2023-04-28T01:37:55;101276.06;;;3.27;100.00
9460;BME280;4768;42.664;23.240;2023-04-28T01:40:22;95008.34;;;3.28;100.00
9460;BME280;4768;42.664;23.240;2023-04-28T01:42:50;105115.97;;;3.29;100.00
9460;BME280;4768;42.664;23.240;2023-04-28T01:45:17;103718.69;;;3.28;100.00
9460;BME280;4768;42.664;23.240;2023-04-28T01:47:44;79004.53;;;2.99;100.00
9460;BME280;4768;42.664;23.240;2023-04-28T01:50:11;80402.69;;;3.10;100.00
9460;BME280;4768;42.664;23.240;2023-04-28T01:52:38;82482.34;;;3.11;100.00
9460;BME280;4768;42.664;23.240;2023-04-28T01:55:05;84923.47;;;3.22;100.00
9460;BME280;4768;42.664;23.240;2023-04-28T01:57:32;89091.75;;;3.24;100.00
9460;BME280;4768;42.664;23.240;2023-04-28T02:00:01;89431.13;;;3.18;100.00
9460;BME280;4768;42.664;23.240;2023-04-28T02:02:29;91171.78;;;3.20;100.00
9460;BME280;4768;42.664;23.240;2023-04-28T02:04:56;93259.78;;;3.22;100.00
9460;BME280;4768;42.664;23.240;2023-04-28T02:07:23;91517.94;;;3.19;100.00
9460;BME280;4768;42.664;23.240;2023-04-28T02:09:50;84564.59;;;3.12;100.00
9460;BME280;4768;42.664;23.240;2023-04-28T02:12:16;79010.91;;;3.05;100.00
9460;BME280;4768;42.664;23.240;2023-04-28T02:14:43;71046.88;;;2.95;100.00
9460;BME280;4768;42.664;23.240;2023-04-28T02:17:11;66210.66;;;2.91;100.00
9460;BME280;4768;42.664;23.240;2023-04-28T02:19:38;66212.09;;;2.92;100.00
9460;BME280;4768;42.664;23.240;2023-04-28T02:22:05;65871.03;;;2.96;100.00
9460;BME280;4768;42.664;23.240;2023-04-28T02:24:34;62062.38;;;2.77;100.00
9460;BME280;4768;42.664;23.240;2023-04-28T02:27:01;64149.44;;;2.99;100.00
9460;BME280;4768;42.664;23.240;2023-04-28T02:29:29;57247.44;;;2.81;100.00
9460;BME280;4768;42.664;23.240;2023-04-28T02:31:56;54157.88;;;2.86;100.00
9460;BME280;4768;42.664;23.240;2023-04-28T02:34:24;57256.72;;;2.92;100.00
9460;BME280;4768;42.664;23.240;2023-04-28T02:36:51;59324.06;;;2.95;100.00
9460;BME280;4768;42.664;23.240;2023-04-28T02:39:18;59668.69;;;2.96;100.00
9460;BME280;4768;42.664;23.240;2023-04-28T02:41:46;61394.22;;;3.00;100.00
9460;BME280;4768;42.664;23.240;2023-04-28T02:44:13;61391.19;;;2.97;100.00
9460;BME280;4768;42.664;23.240;2023-04-28T02:46:39;64150.81;;;3.00;100.00
9460;BME280;4768;42.664;23.240;2023-04-28T02:49:06;66221.63;;;3.02;100.00
9460;BME280;4768;42.664;23.240;2023-04-28T02:51:34;70027.13;;;3.11;100.00
9460;BME280;4768;42.664;23.240;2023-04-28T02:54:01;62768.66;;;2.96;100.00
9460;BME280;4768;42.664;23.240;2023-04-28T02:56:28;67605.03;;;3.06;100.00
9460;BME280;4768;42.664;23.240;2023-04-28T02:58:55;74519.88;;;3.11;100.00
9460;BME280;4768;42.664;23.240;2023-04-28T03:01:22;81448.69;;;3.16;100.00
9460;BME280;4768;42.664;23.240;2023-04-28T03:03:49;89433.13;;;3.19;100.00
9460;BME280;4768;42.664;23.240;2023-04-28T03:06:15;91510.41;;;3.14;100.00
9460;BME280;4768;42.664;23.240;2023-04-28T03:08:44;91858.66;;;3.14;100.00
9460;BME280;4768;42.664;23.240;2023-04-28T03:11:10;95692.13;;;3.20;100.00
9460;BME280;4768;42.664;23.240;2023-04-28T03:13:37;99869.09;;;3.19;100.00
9460;BME280;4768;42.664;23.240;2023-04-28T03:16:05;103705.31;;;3.20;100.00
9460;BME280;4768;42.664;23.240;2023-04-28T03:18:32;106487.09;;;3.14;100.00
9460;BME280;4768;42.664;23.240;2023-04-28T03:20:59;106137.28;;;3.13;100.00
9460;BME280;4768;42.664;23.240;2023-04-28T03:23:25;105786.66;;;3.12;100.00
9460;BME280;4768;42.664;23.240;2023-04-28T03:25:54;113485.44;;;3.20;100.00
9460;BME280;4768;42.664;23.240;2023-04-28T03:28:20;116991.25;;;3.23;100.00
9460;BME280;4768;42.664;23.240;2023-04-28T03:30:47;118738.78;;;3.21;100.00
9460;BME280;4768;42.664;23.240;2023-04-28T03:33:14;124005.00;;;3.25;100.00
9460;BME280;4768;42.664;23.240;2023-04-28T03:35:40;127517.28;;;3.26;100.00
9460;BME280;4768;42.664;23.240;2023-04-28T03:38:07;126466.75;;;3.28;100.00
9460;BME280;4768;42.664;23.240;2023-04-28T03:40:34;130710.00;;;3.41;100.00
9460;BME280;4768;42.664;23.240;2023-04-28T03:43:02;138484.16;;;3.55;100.00
9460;BME280;4768;42.664;23.240;2023-04-28T03:45:29;155850.81;;;3.77;100.00
9460;BME280;4768;42.664;23.240;2023-04-28T03:47:56;167953.25;;;3.91;100.00
9460;BME280;4768;42.664;23.240;2023-04-28T03:50:23;167987.75;;;4.04;100.00
9460;BME280;4768;42.664;23.240;2023-04-28T03:52:49;167987.75;;;4.04;100.00
9460;BME280;4768;42.664;23.240;2023-04-28T03:55:16;168054.03;;;4.29;100.00
9460;BME280;4768;42.664;23.240;2023-04-28T03:57:43;168085.88;;;4.40;100.00
9460;BME280;4768;42.664;23.240;2023-04-28T04:00:12;168008.97;;;4.12;100.00
9460;BME280;4768;42.664;23.240;2023-04-28T04:02:39;168079.28;;;4.38;100.00
9460;BME280;4768;42.664;23.240;2023-04-28T04:05:07;168113.81;;;4.51;100.00
9460;BME280;4768;42.664;23.240;2023-04-28T04:07:33;168178.81;;;4.75;100.00
9460;BME280;4768;42.664;23.240;2023-04-28T04:10:00;168213.31;;;4.88;100.00
9460;BME280;4768;42.664;23.240;2023-04-28T04:12:27;168277.03;;;5.12;100.00
9460;BME280;4768;42.664;23.240;2023-04-28T04:14:54;168340.75;;;5.35;100.00
9460;BME280;4768;42.664;23.240;2023-04-28T04:17:22;168227.88;;;4.93;100.00
9460;BME280;4768;42.664;23.240;2023-04-28T04:19:49;168269.06;;;5.09;100.00
9460;BME280;4768;42.664;23.240;2023-04-28T04:22:15;168308.88;;;5.24;100.00
9460;BME280;4768;42.664;23.240;2023-04-28T04:24:42;168403.16;;;5.59;100.00
9460;BME280;4768;42.664;23.240;2023-04-28T04:27:09;168497.53;;;5.94;100.00
9460;BME280;4768;42.664;23.240;2023-04-28T04:29:36;168581.22;;;6.25;100.00
9460;BME280;4768;42.664;23.240;2023-04-28T04:32:03;168654.28;;;6.52;100.00
9460;BME280;4768;42.664;23.240;2023-04-28T04:34:31;168599.78;;;6.32;100.00
9460;BME280;4768;42.664;23.240;2023-04-28T04:36:58;168662.25;;;6.55;100.00
9460;BME280;4768;42.664;23.240;2023-04-28T04:39:25;168680.84;;;6.62;100.00
9460;BME280;4768;42.664;23.240;2023-04-28T04:41:51;168783.22;;;7.00;100.00
9460;BME280;4768;42.664;23.240;2023-04-28T04:44:18;168744.66;;;6.86;100.00
9460;BME280;4768;42.664;23.240;2023-04-28T04:46:46;168761.91;;;6.92;100.00
9460;BME280;4768;42.664;23.240;2023-04-28T04:49:12;168712.75;;;6.74;100.00
9460;BME280;4768;42.664;23.240;2023-04-28T04:51:41;168763.28;;;6.93;100.00
9460;BME280;4768;42.664;23.240;2023-04-28T04:54:07;168723.41;;;6.78;100.00
9460;BME280;4768;42.664;23.240;2023-04-28T04:56:34;168577.22;;;6.24;100.00
9460;BME280;4768;42.664;23.240;2023-04-28T04:59:01;168690.16;;;6.66;100.00
9460;BME280;4768;42.664;23.240;2023-04-28T05:01:28;168843.03;;;7.22;100.00
9460;BME280;4768;42.664;23.240;2023-04-28T05:03:55;169017.25;;;7.87;100.00
9460;BME280;4768;42.664;23.240;2023-04-28T05:06:22;169027.91;;;7.91;100.00
9460;BME280;4768;42.664;23.240;2023-04-28T05:08:50;168819.09;;;7.14;100.00
9460;BME280;4768;42.664;23.240;2023-04-28T05:11:16;168768.56;;;6.95;100.00
9460;BME280;4768;42.664;23.240;2023-04-28T05:13:43;168945.44;;;7.61;100.00
9460;BME280;4768;42.664;23.240;2023-04-28T05:16:10;168896.19;;;7.42;100.00
9460;BME280;4768;42.664;23.240;2023-04-28T05:18:37;169037.19;;;7.95;100.00
9460;BME280;4768;42.664;23.240;2023-04-28T05:21:04;168909.53;;;7.47;100.00
9460;BME280;4768;42.664;23.240;2023-04-28T05:23:31;168824.41;;;7.16;100.00
9460;BME280;4768;42.664;23.240;2023-04-28T05:25:59;168755.28;;;6.90;100.00
9460;BME280;4768;42.664;23.240;2023-04-28T05:28:27;168805.81;;;7.09;100.00
9460;BME280;4768;42.664;23.240;2023-04-28T05:30:54;168776.53;;;6.98;100.00
9460;BME280;4768;42.664;23.240;2023-04-28T05:33:20;168845.69;;;7.23;100.00
9460;BME280;4768;42.664;23.240;2023-04-28T05:35:48;168924.13;;;7.53;100.00
9460;BME280;4768;42.664;23.240;2023-04-28T05:38:16;168756.63;;;6.90;100.00
9460;BME280;4768;42.664;23.240;2023-04-28T05:40:42;168970.69;;;7.70;100.00
9460;BME280;4768;42.664;23.240;2023-04-28T05:43:11;169082.44;;;8.12;100.00
9460;BME280;4768;42.664;23.240;2023-04-28T05:45:37;168827.06;;;7.17;100.00
9460;BME280;4768;42.664;23.240;2023-04-28T05:48:04;169021.22;;;7.89;100.00
9460;BME280;4768;42.664;23.240;2023-04-28T05:50:31;169139.69;;;8.33;100.00
9460;BME280;4768;42.664;23.240;2023-04-28T05:52:58;168988.00;;;7.76;100.00
9460;BME280;4768;42.664;23.240;2023-04-28T05:55:25;169014.56;;;7.86;100.00
9460;BME280;4768;42.664;23.240;2023-04-28T05:57:52;168944.13;;;7.60;100.00
9460;BME280;4768;42.664;23.240;2023-04-28T06:00:20;169070.44;;;8.07;100.00
9460;BME280;4768;42.664;23.240;2023-04-28T06:02:47;168908.16;;;7.47;100.00
9460;BME280;4768;42.664;23.240;2023-04-28T06:05:14;168926.78;;;7.54;100.00
9460;BME280;4768;42.664;23.240;2023-04-28T06:07:40;168768.56;;;6.95;100.00
9460;BME280;4768;42.664;23.240;2023-04-28T06:10:08;168950.72;;;7.63;100.00
9460;BME280;4768;42.664;23.240;2023-04-28T06:12:35;169046.47;;;7.98;100.00
9460;BME280;4768;42.664;23.240;2023-04-28T06:15:03;169042.50;;;7.97;100.00
9460;BME280;4768;42.664;23.240;2023-04-28T06:17:31;168998.59;;;7.80;100.00
9460;BME280;4768;42.664;23.240;2023-04-28T06:19:58;168945.44;;;7.61;100.00
9460;BME280;4768;42.664;23.240;2023-04-28T06:22:25;168910.84;;;7.48;100.00
9460;BME280;4768;42.664;23.240;2023-04-28T06:24:52;168994.59;;;7.79;100.00
9460;BME280;4768;42.664;23.240;2023-04-28T06:27:18;168893.56;;;7.41;100.00
9460;BME280;4768;42.664;23.240;2023-04-28T06:29:45;168977.34;;;7.72;100.00
9460;BME280;4768;42.664;23.240;2023-04-28T06:32:12;169074.41;;;8.09;100.00
9460;BME280;4768;42.664;23.240;2023-04-28T06:34:41;169143.69;;;8.34;100.00
9460;BME280;4768;42.664;23.240;2023-04-28T06:37:07;169198.25;;;8.55;100.00
9460;BME280;4768;42.664;23.240;2023-04-28T06:39:34;169220.84;;;8.63;100.00
9460;BME280;4768;42.664;23.240;2023-04-28T06:42:02;169174.31;;;8.46;100.00
9460;BME280;4768;42.664;23.240;2023-04-28T06:44:29;169218.22;;;8.62;100.00
9460;BME280;4768;42.664;23.240;2023-04-28T06:46:56;169222.19;;;8.64;100.00
9460;BME280;4768;42.664;23.240;2023-04-28T06:49:22;169415.19;;;9.35;100.00
9460;BME280;4768;42.664;23.240;2023-04-28T06:51:51;169282.09;;;8.86;100.00
9460;BME280;4768;42.664;23.240;2023-04-28T06:54:17;169162.31;;;8.41;100.00
9460;BME280;4768;42.664;23.240;2023-04-28T06:56:44;169404.56;;;9.31;100.00
9460;BME280;4768;42.664;23.240;2023-04-28T06:59:11;169435.16;;;9.43;100.00
9460;BME280;4768;42.664;23.240;2023-04-28T07:01:37;169332.69;;;9.05;100.00
9460;BME280;4768;42.664;23.240;2023-04-28T07:04:04;169401.88;;;9.30;100.00
9460;BME280;4768;42.664;23.240;2023-04-28T07:06:31;169314.03;;;8.98;100.00
9460;BME280;4768;42.664;23.240;2023-04-28T07:08:59;169318.03;;;8.99;100.00
9460;BME280;4768;42.664;23.240;2023-04-28T07:11:26;169409.88;;;9.33;100.00
9460;BME280;4768;42.664;23.240;2023-04-28T07:13:52;169405.88;;;9.32;100.00
9460;BME280;4768;42.664;23.240;2023-04-28T07:16:19;169355.28;;;9.13;100.00
9460;BME280;4768;42.664;23.240;2023-04-28T07:18:46;169267.44;;;8.80;100.00
9460;BME280;4768;42.664;23.240;2023-04-28T07:21:13;169243.47;;;8.71;100.00
9460;BME280;4768;42.664;23.240;2023-04-28T07:23:40;169247.47;;;8.73;100.00
9460;BME280;4768;42.664;23.240;2023-04-28T07:26:09;169427.16;;;9.40;100.00
9460;BME280;4768;42.664;23.240;2023-04-28T07:28:35;169517.72;;;9.73;100.00
9460;BME280;4768;42.664;23.240;2023-04-28T07:31:02;169441.81;;;9.45;100.00
9460;BME280;4768;42.664;23.240;2023-04-28T07:33:29;169356.66;;;9.14;100.00
9460;BME280;4768;42.664;23.240;2023-04-28T07:35:56;169304.72;;;8.94;100.00
9460;BME280;4768;42.664;23.240;2023-04-28T07:38:23;169388.59;;;9.25;100.00
9460;BME280;4768;42.664;23.240;2023-04-28T07:40:50;169349.97;;;9.11;100.00
9460;BME280;4768;42.664;23.240;2023-04-28T07:43:18;169344.66;;;9.09;100.00
9460;BME280;4768;42.664;23.240;2023-04-28T07:45:44;169479.16;;;9.59;100.00
9460;BME280;4768;42.664;23.240;2023-04-28T07:48:14;169455.19;;;9.50;100.00
9460;BME280;4768;42.664;23.240;2023-04-28T07:50:40;169311.34;;;8.97;100.00
9460;BME280;4768;42.664;23.240;2023-04-28T07:53:07;169356.66;;;9.14;100.00
9460;BME280;4768;42.664;23.240;2023-04-28T07:55:34;169405.88;;;9.32;100.00
9460;BME280;4768;42.664;23.240;2023-04-28T07:58:01;169528.41;;;9.77;100.00
9460;BME280;4768;42.664;23.240;2023-04-28T08:00:30;169564.38;;;9.91;100.00
9460;BME280;4768;42.664;23.240;2023-04-28T08:02:56;169675.00;;;10.32;95.06
9460;BME280;4768;42.664;23.240;2023-04-28T08:05:23;169413.88;;;9.35;94.03
9460;BME280;4768;42.664;23.240;2023-04-28T08:07:50;169587.06;;;9.99;95.47
9460;BME280;4768;42.664;23.240;2023-04-28T08:10:17;169589.69;;;10.00;90.97
9460;BME280;4768;42.664;23.240;2023-04-28T08:12:44;169395.22;;;9.28;95.13
9460;BME280;4768;42.664;23.240;2023-04-28T08:15:11;169603.06;;;10.05;96.99
9460;BME280;4768;42.664;23.240;2023-04-28T08:17:39;169813.59;;;10.83;95.06
9460;BME280;4768;42.664;23.240;2023-04-28T08:20:07;169758.94;;;10.63;90.20
9460;BME280;4768;42.664;23.240;2023-04-28T08:22:35;169601.69;;;10.05;91.62
9460;BME280;4768;42.664;23.240;2023-04-28T08:25:02;169796.28;;;10.77;90.34
9460;BME280;4768;42.664;23.240;2023-04-28T08:27:29;169733.63;;;10.54;87.18
9460;BME280;4768;42.664;23.240;2023-04-28T08:29:56;169784.25;;;10.72;86.01
9460;BME280;4768;42.664;23.240;2023-04-28T08:32:23;169724.28;;;10.50;90.14
9460;BME280;4768;42.664;23.240;2023-04-28T08:34:51;169789.59;;;10.74;84.63
9460;BME280;4768;42.664;23.240;2023-04-28T08:37:18;169857.56;;;11.00;84.18
9460;BME280;4768;42.664;23.240;2023-04-28T08:39:44;170004.28;;;11.54;88.38
9460;BME280;4768;42.664;23.240;2023-04-28T08:42:12;169988.28;;;11.48;81.67
9460;BME280;4768;42.664;23.240;2023-04-28T08:44:39;169809.59;;;10.82;87.76
9460;BME280;4768;42.664;23.240;2023-04-28T08:47:11;169682.97;;;10.35;88.10
9460;BME280;4768;42.664;23.240;2023-04-28T08:49:38;169702.97;;;10.42;92.61
9460;BME280;4768;42.664;23.240;2023-04-28T08:52:09;169826.91;;;10.88;94.46
9460;BME280;4768;42.664;23.240;2023-04-28T08:54:38;169925.56;;;11.25;92.63
9460;BME280;4768;42.664;23.240;2023-04-28T08:57:07;169601.69;;;10.05;89.27
9460;BME280;4768;42.664;23.240;2023-04-28T08:59:37;169682.97;;;10.35;93.24
9460;BME280;4768;42.664;23.240;2023-04-28T09:02:04;169781.59;;;10.71;89.07
9460;BME280;4768;42.664;23.240;2023-04-28T09:04:30;169647.03;;;10.21;87.13
9460;BME280;4768;42.664;23.240;2023-04-28T09:06:57;169825.59;;;10.88;90.80
9460;BME280;4768;42.664;23.240;2023-04-28T09:09:26;170017.59;;;11.59;94.37
9460;BME280;4768;42.664;23.240;2023-04-28T09:11:55;169933.56;;;11.28;86.28
9460;BME280;4768;42.664;23.240;2023-04-28T09:14:23;169761.63;;;10.64;85.85
9460;BME280;4768;42.664;23.240;2023-04-28T09:16:50;169900.25;;;11.15;87.65
9460;BME280;4768;42.664;23.240;2023-04-28T09:19:18;169836.25;;;10.92;83.31
9460;BME280;4768;42.664;23.240;2023-04-28T09:21:46;169885.56;;;11.10;84.91
9460;BME280;4768;42.664;23.240;2023-04-28T09:24:28;169768.25;;;10.66;84.22
9460;BME280;4768;42.664;23.240;2023-04-28T09:26:56;169776.25;;;10.69;83.33
9460;BME280;4768;42.664;23.240;2023-04-28T09:29:23;169928.25;;;11.26;84.79
9460;BME280;4768;42.664;23.240;2023-04-28T09:31:50;169797.59;;;10.77;81.60
9460;BME280;4768;42.664;23.240;2023-04-28T09:34:17;169842.91;;;10.94;82.46
9460;BME280;4768;42.664;23.240;2023-04-28T09:36:44;169942.88;;;11.31;81.10
9460;BME280;4768;42.664;23.240;2023-04-28T09:39:11;170053.59;;;11.72;83.58
9460;BME280;4768;42.664;23.240;2023-04-28T09:41:40;169802.91;;;10.79;82.65
9460;BME280;4768;42.664;23.240;2023-04-28T09:44:11;169873.56;;;11.06;84.93
9460;BME280;4768;42.664;23.240;2023-04-28T09:46:38;169996.28;;;11.51;85.93
9460;BME280;4768;42.664;23.240;2023-04-28T09:49:05;170109.63;;;11.93;79.41
9460;BME280;4768;42.664;23.240;2023-04-28T09:51:33;169901.56;;;11.16;77.56
9460;BME280;4768;42.664;23.240;2023-04-28T09:54:00;169974.91;;;11.43;75.93
9460;BME280;4768;42.664;23.240;2023-04-28T09:56:28;169990.97;;;11.49;78.78
9460;BME280;4768;42.664;23.240;2023-04-28T09:58:58;169929.56;;;11.26;77.41
9460;BME280;4768;42.664;23.240;2023-04-28T10:01:26;170108.31;;;11.93;80.95
9460;BME280;4768;42.664;23.240;2023-04-28T10:03:53;170172.31;;;12.16;77.79
9460;BME280;4768;42.664;23.240;2023-04-28T10:06:22;170353.84;;;12.84;77.69
9460;BME280;4768;42.664;23.240;2023-04-28T10:08:50;170183.00;;;12.20;73.91
9460;BME280;4768;42.664;23.240;2023-04-28T10:11:16;170193.69;;;12.24;73.95
9460;BME280;4768;42.664;23.240;2023-04-28T10:13:45;170184.31;;;12.21;72.45
9460;BME280;4768;42.664;23.240;2023-04-28T10:16:13;170317.78;;;12.70;73.80
9460;BME280;4768;42.664;23.240;2023-04-28T10:18:40;170116.31;;;11.96;72.31
9460;BME280;4768;42.664;23.240;2023-04-28T10:21:09;170057.59;;;11.74;72.26
9460;BME280;4768;42.664;23.240;2023-04-28T10:24:08;170006.97;;;11.55;72.30
9460;BME280;4768;42.664;23.240;2023-04-28T10:27:03;170227.03;;;12.37;76.00
9460;BME280;4768;42.664;23.240;2023-04-28T10:29:31;170353.84;;;12.84;77.41
9460;BME280;4768;42.664;23.240;2023-04-28T10:32:22;170177.69;;;12.18;69.39
9460;BME280;4768;42.664;23.240;2023-04-28T10:34:50;170172.31;;;12.16;69.77
9460;BME280;4768;42.664;23.240;2023-04-28T10:37:17;170232.34;;;12.39;68.07
9460;BME280;4768;42.664;23.240;2023-04-28T10:42:53;170331.09;;;12.75;68.64
9460;BME280;4768;42.664;23.240;2023-04-28T10:46:03;170387.22;;;12.96;64.29
9460;BME280;4768;42.664;23.240;2023-04-28T10:49:05;170201.69;;;12.27;62.42
9460;BME280;4768;42.664;23.240;2023-04-28T10:51:33;170167.00;;;12.14;64.00
9460;BME280;4768;42.664;23.240;2023-04-28T10:57:14;170403.22;;;13.02;63.33
9460;BME280;4768;42.664;23.240;2023-04-28T10:59:42;170490.00;;;13.34;64.16
9460;BME280;4768;42.664;23.240;2023-04-28T11:02:40;170554.09;;;13.58;60.45
9460;BME280;4768;42.664;23.240;2023-04-28T11:05:12;170483.34;;;13.32;58.44
9460;BME280;4768;42.664;23.240;2023-04-28T11:07:40;170320.47;;;12.71;57.31
9460;BME280;4768;42.664;23.240;2023-04-28T11:11:15;170357.88;;;12.85;56.34
9460;BME280;4768;42.664;23.240;2023-04-28T11:13:43;170447.25;;;13.18;55.33
9460;BME280;4768;42.664;23.240;2023-04-28T11:16:13;170531.41;;;13.50;58.70
9460;BME280;4768;42.664;23.240;2023-04-28T11:18:52;170453.97;;;13.21;57.00
9460;BME280;4768;42.664;23.240;2023-04-28T11:21:21;170347.13;;;12.81;56.19
9460;BME280;4768;42.664;23.240;2023-04-28T11:23:49;170423.25;;;13.09;59.21
9460;BME280;4768;42.664;23.240;2023-04-28T11:26:17;170364.56;;;12.88;59.20
9460;BME280;4768;42.664;23.240;2023-04-28T11:28:48;170324.47;;;12.73;59.47
9460;BME280;4768;42.664;23.240;2023-04-28T11:31:16;170335.09;;;12.77;58.22
9460;BME280;4768;42.664;23.240;2023-04-28T11:33:50;170239.03;;;12.41;57.47
9460;BME280;4768;42.664;23.240;2023-04-28T11:36:27;170337.78;;;12.78;57.98
9460;BME280;4768;42.664;23.240;2023-04-28T11:38:56;170337.78;;;12.78;56.36
9460;BME280;4768;42.664;23.240;2023-04-28T11:41:23;170403.22;;;13.02;57.96
9460;BME280;4768;42.664;23.240;2023-04-28T11:43:51;170487.38;;;13.33;58.40
9460;BME280;4768;42.664;23.240;2023-04-28T11:46:19;170500.69;;;13.38;54.05
9460;BME280;4768;42.664;23.240;2023-04-28T11:48:46;170397.91;;;13.00;54.52
9460;BME280;4768;42.664;23.240;2023-04-28T11:51:32;170773.16;;;14.39;58.57
9460;BME280;4768;42.664;23.240;2023-04-28T11:54:00;170463.28;;;13.24;54.84
9460;BME280;4768;42.664;23.240;2023-04-28T11:56:27;170444.63;;;13.17;54.87
9460;BME280;4768;42.664;23.240;2023-04-28T11:59:04;170654.28;;;13.95;56.44
9460;BME280;4768;42.664;23.240;2023-04-28T12:01:32;170503.38;;;13.39;54.15
9460;BME280;4768;42.664;23.240;2023-04-28T12:04:01;170415.22;;;13.06;54.65
9460;BME280;4768;42.664;23.240;2023-04-28T12:06:30;170329.78;;;12.75;54.57
9460;BME280;4768;42.664;23.240;2023-04-28T12:08:56;170391.22;;;12.98;55.28
9460;BME280;4768;42.664;23.240;2023-04-28T12:11:29;170614.16;;;13.80;57.32
9460;BME280;4768;42.664;23.240;2023-04-28T12:14:03;170614.16;;;13.80;54.54
9460;BME280;4768;42.664;23.240;2023-04-28T12:16:41;170635.56;;;13.88;55.64
9460;BME280;4768;42.664;23.240;2023-04-28T12:19:10;170636.88;;;13.89;52.38
9460;BME280;4768;42.664;23.240;2023-04-28T12:21:39;170652.91;;;13.95;52.14
9460;BME280;4768;42.664;23.240;2023-04-28T12:24:13;170532.72;;;13.50;51.61
9460;BME280;4768;42.664;23.240;2023-04-28T12:26:40;170372.56;;;12.91;52.06
9460;BME280;4768;42.664;23.240;2023-04-28T12:29:07;170516.72;;;13.44;54.17
9460;BME280;4768;42.664;23.240;2023-04-28T12:31:47;170710.44;;;14.16;51.64
9460;BME280;4768;42.664;23.240;2023-04-28T12:34:14;170904.13;;;14.88;54.52
9460;BME280;4768;42.664;23.240;2023-04-28T12:36:42;170769.16;;;14.38;53.46
9460;BME280;4768;42.664;23.240;2023-04-28T12:39:12;170817.25;;;14.55;55.60
9460;BME280;4768;42.664;23.240;2023-04-28T12:41:40;170977.66;;;15.15;54.67
9460;BME280;4768;42.664;23.240;2023-04-28T12:44:08;170738.47;;;14.26;53.87
9460;BME280;4768;42.664;23.240;2023-04-28T12:46:34;170802.59;;;14.50;53.81
9460;BME280;4768;42.664;23.240;2023-04-28T12:49:01;170910.81;;;14.90;54.12
9460;BME280;4768;42.664;23.240;2023-04-28T12:51:28;170937.56;;;15.00;56.26
9460;BME280;4768;42.664;23.240;2023-04-28T12:53:56;171032.53;;;15.35;56.64
9460;BME280;4768;42.664;23.240;2023-04-28T12:56:23;170806.59;;;14.51;51.64
9460;BME280;4768;42.664;23.240;2023-04-28T12:58:50;170905.50;;;14.88;54.93
9460;BME280;4768;42.664;23.240;2023-04-28T13:01:17;170848.00;;;14.67;53.62
9460;BME280;4768;42.664;23.240;2023-04-28T13:03:43;170901.47;;;14.87;56.05
9460;BME280;4768;42.664;23.240;2023-04-28T13:06:12;170763.84;;;14.36;54.24
9460;BME280;4768;42.664;23.240;2023-04-28T13:08:39;170550.06;;;13.56;55.44
9460;BME280;4768;42.664;23.240;2023-04-28T13:11:08;170675.63;;;14.03;53.83
9460;BME280;4768;42.664;23.240;2023-04-28T13:13:35;170819.94;;;14.56;54.13
9460;BME280;4768;42.664;23.240;2023-04-28T13:16:02;170612.84;;;13.80;52.28